Details From LFBH - La Rochelle Laleu
To LFRS - Nantes_Atlantique
Flight Number -
Tags generated
Created
Modified
Stats Distance 61 nm / 113 km
Max Altitude 7,400 ft / 2,256 m
Waypoints 3
Social Downloads 3
Likes 0
Share VATSIM

Download

Looking for another format? Having issues loading an existing format? Contact us
Advertisement - Login to hide

Notes

Basic altitude profile: - Ascent Rate: 500ft/min - Ascent Speed: 120kts - Cruise Altitude: 6000ft - Cruise Speed: 120kts - Descent Rate: 500ft/min - Descent Speed: 100kts Options: - Use NATs: yes - Use PACOTS: yes - Use low airways: yes - Use high airways: yes

Route

LFBH TIRAV LFRS

ID Type Via Altitude Latitude Longitude Leg Dist Tot Dist Heading (true) Name
O LFBH APT - 0 ft / 0 m 46.17924˚ -1.19641˚ - 0 nm - La Rochelle Laleu
TIRAV FIX - 7,400 ft / 2,256 m 46.59889˚ -1.39083˚ 26 nm 26 nm 342° / 342° -
O LFRS APT - 0 ft / 0 m 47.15604˚ -1.61119˚ 34 nm 61 nm 345° / 345° Nantes_Atlantique

Altitude Profile

Advertisement - Login to hide

LFBH

Details ICAO LFBH (LRH)
Name La Rochelle Laleu
Region France
Timezone Europe/Paris (UTC+1.0)
Stats Elevation 74 ft / 23 m (AMSL)
Location 46.179245° -1.196410°
Runways 1
Magnetic Variation 0.303° W

METAR

LFBH 120600Z AUTO 16001KT CAVOK 01/M00 Q1011 NOSIG

Decode

TAF

TAF AMD LFBH 120612Z 1206/1306 CNL

Decode

Departure Runways

ID Width Length Bearing (true) Bearing (mag) Surface Threshold Offset Overrun Length
10 148 ft / 45 m 7,383 ft / 2,250 m 92.43° 92.73° Asphalt 1,033 ft / 315 m 0 ft / 0 m
28 148 ft / 45 m 7,383 ft / 2,250 m 272.45° 272.75° Asphalt 1,532 ft / 467 m 0 ft / 0 m

LFRS

Details ICAO LFRS (NTE)
Name Nantes_Atlantique
Region France
Timezone Europe/Paris (UTC+1.0)
Stats Elevation 89 ft / 27 m (AMSL)
Location 47.156040° -1.611186°
Runways 2
Magnetic Variation 0.511° W

METAR

LFRS 120600Z AUTO 18005KT 9999 FEW039 M01/M01 Q1009 NOSIG

Decode

TAF

TAF LFRS 120500Z 1206/1312 22003KT CAVOK PROB30 TEMPO 1212/1215 -SHRA SCT030TCU BECMG 1302/1304 5000 -RA BKN010 TEMPO 1304/1306 25015G25KT 3000 RA BKN005 FM130600 30010KT 9999 SCT020 BECMG 1307/1309 24005KT BECMG 1310/1312 24015KT 5000 -RA BKN010

Decode

Destination Runways

ID Width Length Bearing (true) Bearing (mag) Surface Threshold Offset Overrun Length
03 148 ft / 45 m 9,526 ft / 2,903 m 27.35° 27.86° Asphalt 0 ft / 0 m 0 ft / 0 m
13 100 ft / 30 m 1,999 ft / 609 m 125.55° 126.06° Concrete 0 ft / 0 m 0 ft / 0 m
21 148 ft / 45 m 9,526 ft / 2,903 m 207.37° 207.88° Asphalt 689 ft / 210 m 0 ft / 0 m
31 100 ft / 30 m 1,999 ft / 609 m 305.56° 306.07° Concrete 0 ft / 0 m 0 ft / 0 m

Approach Navaids

Runway Type Ident Frequency Range Bearing (true) Bearing (mag) Slope Elevation
03 Localiser NT 109.90 MHz 27 nm / 50 km 27.42° 27.93° - 89 ft / 27 m (AMSL)
03 Glidescope NT 109.90 MHz 27 nm / 50 km 27.42° 27.93° 3.00° 89 ft / 27 m (AMSL)
03 DME NT 109.90 MHz 27 nm / 50 km - - - 89 ft / 27 m (AMSL)

Popular Alternatives